createdAt,value
2023-03-19T00:00:06.969Z,0.90
2023-03-19T00:01:06.962Z,1.00
2023-03-19T00:02:17.209Z,1.00
2023-03-19T00:03:07.007Z,1.10
2023-03-19T00:04:06.957Z,1.00
2023-03-19T00:05:06.966Z,1.40
2023-03-19T00:06:06.940Z,1.10
2023-03-19T00:07:06.937Z,1.20
2023-03-19T00:08:06.946Z,1.30
2023-03-19T00:09:06.948Z,1.20
2023-03-19T00:10:06.935Z,1.10
2023-03-19T00:11:06.924Z,1.20
2023-03-19T00:12:06.931Z,1.00
2023-03-19T00:13:06.934Z,0.90
2023-03-19T00:14:06.925Z,1.30
2023-03-19T00:15:06.900Z,1.50
2023-03-19T00:16:07.055Z,1.00
2023-03-19T00:17:06.899Z,1.20
2023-03-19T00:18:06.909Z,1.10
2023-03-19T00:19:06.896Z,0.90
2023-03-19T00:20:06.906Z,1.00
2023-03-19T00:21:06.927Z,1.30
2023-03-19T00:22:06.904Z,1.40
2023-03-19T00:23:06.876Z,0.80
2023-03-19T00:24:06.887Z,1.30
2023-03-19T00:25:06.877Z,0.90
2023-03-19T00:26:06.889Z,1.20
2023-03-19T00:27:06.865Z,1.10
2023-03-19T00:28:06.890Z,0.90
2023-03-19T00:29:06.857Z,1.10
2023-03-19T00:30:06.881Z,1.30
2023-03-19T00:31:06.915Z,0.90
2023-03-19T00:32:06.870Z,1.10
2023-03-19T00:33:06.973Z,1.60
2023-03-19T00:34:06.847Z,0.80
2023-03-19T00:35:06.877Z,1.10
2023-03-19T00:36:06.912Z,1.00
2023-03-19T00:37:06.872Z,0.80
2023-03-19T00:38:06.831Z,1.30
2023-03-19T00:39:06.835Z,1.00
2023-03-19T00:40:06.836Z,0.90
2023-03-19T00:41:06.823Z,1.10
2023-03-19T00:42:06.843Z,1.00
2023-03-19T00:43:06.814Z,1.00
2023-03-19T00:44:06.825Z,1.30
2023-03-19T00:45:06.826Z,1.40
2023-03-19T00:46:06.828Z,1.10
2023-03-19T00:47:06.828Z,1.20
2023-03-19T00:48:06.816Z,1.50
2023-03-19T00:49:06.802Z,1.70
2023-03-19T00:50:06.808Z,1.00
2023-03-19T00:51:06.795Z,0.80
2023-03-19T00:52:06.791Z,1.30
2023-03-19T00:53:06.806Z,0.90
2023-03-19T00:54:06.793Z,1.40
2023-03-19T00:55:06.793Z,1.00
2023-03-19T00:56:06.782Z,1.50
2023-03-19T00:57:06.766Z,1.00
2023-03-19T00:58:06.782Z,1.30
2023-03-19T00:59:06.776Z,1.20
2023-03-19T01:00:06.765Z,1.30
2023-03-19T01:01:06.828Z,1.10
2023-03-19T01:02:06.782Z,1.40
2023-03-19T01:03:06.754Z,1.50
2023-03-19T01:04:06.762Z,1.00
2023-03-19T01:05:06.755Z,0.80
2023-03-19T01:06:06.748Z,0.90
2023-03-19T01:07:06.735Z,0.90
2023-03-19T01:08:06.726Z,1.10
2023-03-19T01:09:06.737Z,1.00
2023-03-19T01:10:06.743Z,1.20
2023-03-19T01:11:06.732Z,1.20
2023-03-19T01:12:06.731Z,1.40
2023-03-19T01:13:06.723Z,1.10
2023-03-19T01:14:06.734Z,1.20
2023-03-19T01:15:06.720Z,1.10
2023-03-19T01:16:06.727Z,1.20
2023-03-19T01:17:06.747Z,1.30
2023-03-19T01:18:06.702Z,1.20
2023-03-19T01:19:06.699Z,0.90
2023-03-19T01:20:06.697Z,0.80
2023-03-19T01:21:06.697Z,1.30
2023-03-19T01:22:06.709Z,0.90
2023-03-19T01:23:06.675Z,1.50
2023-03-19T01:24:06.699Z,1.10
2023-03-19T01:25:06.700Z,0.90
2023-03-19T01:26:06.696Z,0.80
2023-03-19T01:27:06.677Z,0.90
2023-03-19T01:28:06.660Z,1.00
2023-03-19T01:29:06.658Z,1.20
2023-03-19T01:30:06.654Z,0.90
2023-03-19T01:31:06.780Z,1.30
2023-03-19T01:32:06.665Z,1.00
2023-03-19T01:33:06.724Z,1.30
2023-03-19T01:34:06.645Z,1.10
2023-03-19T01:35:06.658Z,1.30
2023-03-19T01:36:06.731Z,1.30
2023-03-19T01:37:06.668Z,0.90
2023-03-19T01:38:06.644Z,0.80
2023-03-19T01:39:06.630Z,1.20
2023-03-19T01:40:06.633Z,1.30
2023-03-19T01:41:06.661Z,1.30
2023-03-19T01:42:06.642Z,1.00
2023-03-19T01:43:06.611Z,1.10
2023-03-19T01:44:06.614Z,0.80
2023-03-19T01:45:06.608Z,1.60
2023-03-19T01:46:06.664Z,1.20
2023-03-19T01:47:06.597Z,1.00
2023-03-19T01:48:06.588Z,1.00
2023-03-19T01:49:06.587Z,1.30
2023-03-19T01:50:06.601Z,1.00
2023-03-19T01:51:06.608Z,0.90
2023-03-19T01:52:06.599Z,0.90
2023-03-19T01:53:06.583Z,1.50
2023-03-19T01:54:06.587Z,1.50
2023-03-19T01:55:06.578Z,1.20
2023-03-19T01:56:06.566Z,1.30
2023-03-19T01:57:06.612Z,1.40
2023-03-19T01:58:06.573Z,1.20
2023-03-19T01:59:06.561Z,1.10
2023-03-19T02:00:06.558Z,0.80
2023-03-19T02:01:06.578Z,1.10
2023-03-19T02:02:06.563Z,1.10
2023-03-19T02:03:06.557Z,1.00
2023-03-19T02:04:06.604Z,1.60
2023-03-19T02:05:06.564Z,1.20
2023-03-19T02:06:06.544Z,1.00
2023-03-19T02:07:06.529Z,0.90
2023-03-19T02:08:06.541Z,1.00
2023-03-19T02:09:06.528Z,1.50
2023-03-19T02:10:06.550Z,1.00
2023-03-19T02:11:06.539Z,1.00
2023-03-19T02:12:06.539Z,1.00
2023-03-19T02:13:06.627Z,0.90
2023-03-19T02:14:06.525Z,1.70
2023-03-19T02:15:06.522Z,1.50
2023-03-19T02:16:06.531Z,1.00
2023-03-19T02:17:06.497Z,1.20
2023-03-19T02:18:06.510Z,1.50
2023-03-19T02:19:06.500Z,1.20
2023-03-19T02:20:06.506Z,1.30
2023-03-19T02:21:06.496Z,0.80
2023-03-19T02:22:06.474Z,1.00
2023-03-19T02:23:06.488Z,1.20
2023-03-19T02:24:06.471Z,0.90
2023-03-19T02:25:06.494Z,1.00
2023-03-19T02:26:06.479Z,0.90
2023-03-19T02:27:06.496Z,1.10
2023-03-19T02:28:06.488Z,1.00
2023-03-19T02:29:06.695Z,0.90
2023-03-19T02:30:06.461Z,1.20
2023-03-19T02:31:06.487Z,1.20
2023-03-19T02:32:06.441Z,1.50
2023-03-19T02:33:06.503Z,1.00
2023-03-19T02:34:06.464Z,1.60
2023-03-19T02:35:06.437Z,1.20
2023-03-19T02:36:06.460Z,1.40
2023-03-19T02:37:06.441Z,0.90
2023-03-19T02:38:06.439Z,1.40
2023-03-19T02:39:06.436Z,1.20
2023-03-19T02:40:06.423Z,1.70
2023-03-19T02:41:06.447Z,0.80
2023-03-19T02:42:06.426Z,1.10
2023-03-19T02:43:06.445Z,1.20
2023-03-19T02:44:06.417Z,0.90
2023-03-19T02:45:06.423Z,1.00
2023-03-19T02:46:06.394Z,0.90
2023-03-19T02:47:06.416Z,0.80
2023-03-19T02:48:06.390Z,1.10
2023-03-19T02:49:06.394Z,1.50
2023-03-19T02:50:06.418Z,1.20
2023-03-19T02:51:06.399Z,1.20
2023-03-19T02:52:06.417Z,1.20
2023-03-19T02:53:06.385Z,0.90
2023-03-19T02:54:06.402Z,1.00
2023-03-19T02:55:06.366Z,1.10
2023-03-19T02:56:06.360Z,0.80
2023-03-19T02:57:06.357Z,1.30
2023-03-19T02:58:06.360Z,1.10
2023-03-19T02:59:06.371Z,1.00
2023-03-19T03:00:06.345Z,1.10
2023-03-19T03:01:06.468Z,1.50
2023-03-19T03:02:06.379Z,1.20
2023-03-19T03:03:06.378Z,1.10
2023-03-19T03:04:06.348Z,1.10
2023-03-19T03:05:06.349Z,0.90
2023-03-19T03:06:06.344Z,1.10
2023-03-19T03:07:06.333Z,1.40
2023-03-19T03:08:06.330Z,1.00
2023-03-19T03:09:06.340Z,1.40
2023-03-19T03:10:06.341Z,1.10
2023-03-19T03:11:06.344Z,0.90
2023-03-19T03:12:06.327Z,1.10
2023-03-19T03:13:06.344Z,1.20
2023-03-19T03:14:06.304Z,1.40
2023-03-19T03:15:06.310Z,1.60
2023-03-19T03:16:06.354Z,0.90
2023-03-19T03:17:06.328Z,1.20
2023-03-19T03:18:06.299Z,1.20
2023-03-19T03:19:06.293Z,0.90
2023-03-19T03:20:06.300Z,1.60
2023-03-19T03:21:06.294Z,0.80
2023-03-19T03:22:06.294Z,1.10
2023-03-19T03:23:06.315Z,1.20
2023-03-19T03:24:06.271Z,1.10
2023-03-19T03:25:06.271Z,1.00
2023-03-19T03:26:06.275Z,1.00
2023-03-19T03:27:06.284Z,1.50
2023-03-19T03:28:06.288Z,0.90
2023-03-19T03:29:06.261Z,1.20
2023-03-19T03:30:06.281Z,1.30
2023-03-19T03:31:06.266Z,1.00
2023-03-19T03:32:06.277Z,1.40
2023-03-19T03:33:06.372Z,0.90
2023-03-19T03:34:06.246Z,1.20
2023-03-19T03:35:06.239Z,0.90
2023-03-19T03:36:06.242Z,1.20
2023-03-19T03:37:06.241Z,1.40
2023-03-19T03:38:06.243Z,1.20
2023-03-19T03:39:06.243Z,1.20
2023-03-19T03:40:06.226Z,1.30
2023-03-19T03:41:06.261Z,1.10
2023-03-19T03:42:06.247Z,1.30
2023-03-19T03:43:52.539Z,1.10
2023-03-19T03:44:52.542Z,1.10
2023-03-19T03:45:52.566Z,0.90
2023-03-19T03:46:52.568Z,0.90
2023-03-19T03:47:52.530Z,1.30
2023-03-19T03:48:52.569Z,1.60
2023-03-19T03:49:52.517Z,1.80
2023-03-19T03:50:52.530Z,1.30
2023-03-19T03:51:52.530Z,1.00
2023-03-19T03:52:52.543Z,0.90
2023-03-19T03:53:52.525Z,1.20
2023-03-19T03:54:52.522Z,1.10
2023-03-19T03:55:52.528Z,1.30
2023-03-19T03:56:52.518Z,0.90
2023-03-19T03:57:52.499Z,0.90
2023-03-19T03:58:52.492Z,1.40
2023-03-19T03:59:52.506Z,1.10
2023-03-19T04:00:52.505Z,0.90
2023-03-19T04:01:52.550Z,1.00
2023-03-19T04:02:52.512Z,1.40
2023-03-19T04:03:52.495Z,1.30
2023-03-19T04:04:52.502Z,0.90
2023-03-19T04:05:52.481Z,1.10
2023-03-19T04:06:52.485Z,0.80
2023-03-19T04:07:52.482Z,1.20
2023-03-19T04:08:52.463Z,0.90
2023-03-19T04:09:52.486Z,1.10
2023-03-19T04:10:52.452Z,1.00
2023-03-19T04:11:52.457Z,0.90
2023-03-19T04:12:52.446Z,1.10
2023-03-19T04:13:52.445Z,0.90
2023-03-19T04:14:52.441Z,0.90
2023-03-19T04:15:52.439Z,0.90
2023-03-19T04:16:52.529Z,0.80
2023-03-19T04:17:52.429Z,0.80
2023-03-19T04:18:52.450Z,0.90
2023-03-19T04:19:52.428Z,1.10
2023-03-19T04:20:52.466Z,1.10
2023-03-19T04:21:52.421Z,1.80
2023-03-19T04:22:52.432Z,1.10
2023-03-19T04:23:52.412Z,0.80
2023-03-19T04:24:52.427Z,1.30
2023-03-19T04:25:52.416Z,1.00
2023-03-19T04:26:52.429Z,1.30
2023-03-19T04:27:52.396Z,0.90
2023-03-19T04:28:52.412Z,1.00
2023-03-19T04:29:52.390Z,0.90
2023-03-19T04:30:52.403Z,0.90
2023-03-19T04:31:52.395Z,0.90
2023-03-19T04:32:52.454Z,0.90
2023-03-19T04:33:52.395Z,1.00
2023-03-19T04:34:52.403Z,1.10
2023-03-19T04:35:52.418Z,1.00
2023-03-19T04:36:52.391Z,1.00
2023-03-19T04:37:52.362Z,1.00
2023-03-19T04:38:52.365Z,1.20
2023-03-19T04:39:52.370Z,0.70
2023-03-19T04:40:52.371Z,0.90
2023-03-19T04:41:52.379Z,1.00
2023-03-19T04:42:52.352Z,1.00
2023-03-19T04:43:52.353Z,0.90
2023-03-19T04:44:52.339Z,0.90
2023-03-19T04:45:52.397Z,1.30
2023-03-19T04:46:52.377Z,1.30
2023-03-19T04:47:52.344Z,1.20
2023-03-19T04:48:52.335Z,1.00
2023-03-19T04:49:52.334Z,1.10
2023-03-19T04:50:52.344Z,0.90
2023-03-19T04:51:52.350Z,0.90
2023-03-19T04:52:52.329Z,1.20
2023-03-19T04:53:52.339Z,0.80
2023-03-19T04:54:52.305Z,1.10
2023-03-19T04:55:52.315Z,1.20
2023-03-19T04:56:52.306Z,0.90
2023-03-19T04:57:52.306Z,1.00
2023-03-19T04:58:52.341Z,0.80
2023-03-19T04:59:52.303Z,1.00
2023-03-19T05:00:52.279Z,1.60
2023-03-19T05:01:52.285Z,1.00
2023-03-19T05:02:52.292Z,0.80
2023-03-19T05:03:52.379Z,1.10
2023-03-19T05:04:52.271Z,1.10
2023-03-19T05:05:52.280Z,0.90
2023-03-19T05:06:52.265Z,0.90
2023-03-19T05:07:52.270Z,0.90
2023-03-19T05:08:52.287Z,1.30
2023-03-19T05:09:52.255Z,0.90
2023-03-19T05:10:52.249Z,1.60
2023-03-19T05:11:52.249Z,1.30
2023-03-19T05:12:52.240Z,1.30
2023-03-19T05:13:52.255Z,0.90
2023-03-19T05:14:52.245Z,0.90
2023-03-19T05:15:52.265Z,0.80
2023-03-19T05:16:52.224Z,0.90
2023-03-19T05:17:52.253Z,0.80
2023-03-19T05:18:52.225Z,1.60
2023-03-19T05:19:52.232Z,1.40
2023-03-19T05:20:52.225Z,0.90
2023-03-19T05:21:52.232Z,1.00
2023-03-19T05:22:52.220Z,0.80
2023-03-19T05:23:52.230Z,1.40
2023-03-19T05:24:52.265Z,0.90
2023-03-19T05:25:52.224Z,1.00
2023-03-19T05:26:52.226Z,1.20
2023-03-19T05:27:52.197Z,0.90
2023-03-19T05:28:52.207Z,0.90
2023-03-19T05:29:52.181Z,1.00
2023-03-19T05:30:52.206Z,0.90
2023-03-19T05:31:52.204Z,0.90
2023-03-19T05:32:52.218Z,1.10
2023-03-19T05:33:52.196Z,1.00
2023-03-19T05:34:52.201Z,1.00
2023-03-19T05:35:52.185Z,0.90
2023-03-19T05:36:52.170Z,1.00
2023-03-19T05:37:52.188Z,1.00
2023-03-19T05:38:52.168Z,0.80
2023-03-19T05:39:52.171Z,1.30
2023-03-19T05:40:52.169Z,0.80
2023-03-19T05:41:52.162Z,0.90
2023-03-19T05:42:52.165Z,0.80
2023-03-19T05:43:52.144Z,1.00
2023-03-19T05:44:52.142Z,0.90
2023-03-19T05:45:52.136Z,0.90
2023-03-19T05:46:52.229Z,0.80
2023-03-19T05:47:52.150Z,1.00
2023-03-19T05:48:52.125Z,0.90
2023-03-19T05:49:52.115Z,1.20
2023-03-19T05:50:52.121Z,1.00
2023-03-19T05:51:52.128Z,0.90
2023-03-19T05:52:52.108Z,1.20
2023-03-19T05:53:52.116Z,1.10
2023-03-19T05:54:52.113Z,0.90
2023-03-19T05:55:52.128Z,0.90
2023-03-19T05:56:52.103Z,0.90
2023-03-19T05:57:52.107Z,0.80
2023-03-19T05:58:52.090Z,0.90
2023-03-19T05:59:52.108Z,0.80
2023-03-19T06:00:52.090Z,0.80
2023-03-19T06:01:52.119Z,0.80
2023-03-19T06:02:52.167Z,1.00
2023-03-19T06:03:52.165Z,0.90
2023-03-19T06:04:52.071Z,1.00
2023-03-19T06:05:52.066Z,0.80
2023-03-19T06:06:52.056Z,0.90
2023-03-19T06:07:52.067Z,1.00
2023-03-19T06:08:52.046Z,0.90
2023-03-19T06:09:52.051Z,0.90
2023-03-19T06:10:52.042Z,0.80
2023-03-19T06:11:52.060Z,1.20
2023-03-19T06:12:52.071Z,0.80
2023-03-19T06:13:52.069Z,0.90
2023-03-19T06:14:52.046Z,0.70
2023-03-19T06:15:52.140Z,0.90
2023-03-19T06:16:52.035Z,0.90
2023-03-19T06:17:52.033Z,1.00
2023-03-19T06:18:52.033Z,1.20
2023-03-19T06:19:52.046Z,0.80
2023-03-19T06:20:52.003Z,0.90
2023-03-19T06:21:52.026Z,0.90
2023-03-19T06:22:52.010Z,0.80
2023-03-19T06:23:52.010Z,0.80
2023-03-19T06:24:52.005Z,0.70
2023-03-19T06:25:52.000Z,0.90
2023-03-19T06:26:51.998Z,1.00
2023-03-19T06:27:51.982Z,0.80
2023-03-19T06:28:52.013Z,0.90
2023-03-19T06:29:52.000Z,1.00
2023-03-19T06:30:51.997Z,0.90
2023-03-19T06:31:52.065Z,0.90
2023-03-19T06:32:52.045Z,0.70
2023-03-19T06:33:51.963Z,0.80
2023-03-19T06:34:51.965Z,0.70
2023-03-19T06:35:51.983Z,0.80
2023-03-19T06:36:51.960Z,0.90
2023-03-19T06:37:51.978Z,1.00
2023-03-19T06:38:51.944Z,0.90
2023-03-19T06:39:51.943Z,0.80
2023-03-19T06:40:51.960Z,0.80
2023-03-19T06:41:51.953Z,0.80
2023-03-19T06:42:51.950Z,0.80
2023-03-19T06:43:51.955Z,0.80
2023-03-19T06:44:53.654Z,0.80
2023-03-19T06:45:51.984Z,0.80
2023-03-19T06:46:51.933Z,0.90
2023-03-19T06:47:53.553Z,0.90
2023-03-19T06:48:51.920Z,0.90
2023-03-19T06:49:51.927Z,0.80
2023-03-19T06:50:51.916Z,0.80
2023-03-19T06:51:51.909Z,0.90
2023-03-19T06:52:51.900Z,0.70
2023-03-19T06:53:51.915Z,0.80
2023-03-19T06:54:51.911Z,0.80
2023-03-19T06:55:51.891Z,0.80
2023-03-19T06:56:51.901Z,0.80
2023-03-19T06:57:51.886Z,1.00
2023-03-19T06:58:51.902Z,0.80
2023-03-19T06:59:51.907Z,0.80
2023-03-19T07:00:51.929Z,1.00
2023-03-19T07:01:51.882Z,1.00
2023-03-19T07:02:51.876Z,0.80
2023-03-19T07:03:51.934Z,1.20
2023-03-19T07:04:51.858Z,0.80
2023-03-19T07:05:51.885Z,1.10
2023-03-19T07:06:51.870Z,0.90
2023-03-19T07:07:51.863Z,0.90
2023-03-19T07:08:51.865Z,0.80
2023-03-19T07:09:51.852Z,1.00
2023-03-19T07:10:51.846Z,0.70
2023-03-19T07:11:51.840Z,1.00
2023-03-19T07:12:51.847Z,0.70
2023-03-19T07:13:51.841Z,1.00
2023-03-19T07:14:51.823Z,0.80
2023-03-19T07:15:51.830Z,0.90
2023-03-19T07:16:51.902Z,0.90
2023-03-19T07:17:51.833Z,0.80
2023-03-19T07:18:51.823Z,0.80
2023-03-19T07:19:51.823Z,1.30
2023-03-19T07:20:51.810Z,0.70
2023-03-19T07:21:51.823Z,1.00
2023-03-19T07:22:51.814Z,0.80
2023-03-19T07:23:51.825Z,0.90
2023-03-19T07:24:51.808Z,0.80
2023-03-19T07:25:51.795Z,0.70
2023-03-19T07:26:51.791Z,0.70
2023-03-19T07:27:54.189Z,0.80
2023-03-19T07:28:51.770Z,0.80
2023-03-19T07:29:51.814Z,0.80
2023-03-19T07:30:51.767Z,1.20
2023-03-19T07:31:51.799Z,0.90
2023-03-19T07:32:51.843Z,0.90
2023-03-19T07:33:51.774Z,0.70
2023-03-19T07:34:51.766Z,0.70
2023-03-19T07:35:51.817Z,0.80
2023-03-19T07:36:51.743Z,1.00
2023-03-19T07:37:51.800Z,0.70
2023-03-19T07:38:51.796Z,0.80
2023-03-19T07:39:51.742Z,0.80
2023-03-19T07:41:01.873Z,0.90
2023-03-19T07:41:51.760Z,0.80
2023-03-19T07:42:51.720Z,0.70
2023-03-19T07:43:51.750Z,0.80
2023-03-19T07:44:51.708Z,0.70
2023-03-19T07:45:51.818Z,0.80
2023-03-19T07:46:51.730Z,0.90
2023-03-19T07:47:51.739Z,0.80
2023-03-19T07:48:51.741Z,0.80
2023-03-19T07:49:51.706Z,1.00
2023-03-19T07:50:51.702Z,0.90
2023-03-19T07:51:51.688Z,0.80
2023-03-19T07:52:51.725Z,0.80
2023-03-19T07:53:51.700Z,1.00
2023-03-19T07:54:51.673Z,0.70
2023-03-19T07:55:51.693Z,0.80
2023-03-19T07:56:51.666Z,0.80
2023-03-19T07:57:51.667Z,0.70
2023-03-19T07:58:51.684Z,0.70
2023-03-19T07:59:51.682Z,1.00
2023-03-19T08:00:51.659Z,1.00
2023-03-19T08:01:51.665Z,0.80
2023-03-19T08:02:51.742Z,0.70
2023-03-19T08:03:51.650Z,0.80
2023-03-19T08:04:51.971Z,1.00
2023-03-19T08:05:51.657Z,0.70
2023-03-19T08:06:51.659Z,0.80
2023-03-19T08:07:51.638Z,0.80
2023-03-19T08:08:51.638Z,0.80
2023-03-19T08:09:51.644Z,0.90
2023-03-19T08:10:51.623Z,0.80
2023-03-19T08:11:51.629Z,0.90
2023-03-19T08:12:51.638Z,0.90
2023-03-19T08:13:51.627Z,0.70
2023-03-19T08:14:51.625Z,0.80
2023-03-19T08:15:51.607Z,0.70
2023-03-19T08:16:51.784Z,0.80
2023-03-19T08:17:51.605Z,0.80
2023-03-19T08:18:52.539Z,0.70
2023-03-19T08:19:51.601Z,0.80
2023-03-19T08:20:51.648Z,0.70
2023-03-19T08:21:51.593Z,0.80
2023-03-19T08:22:51.615Z,0.90
2023-03-19T08:23:51.600Z,0.70
2023-03-19T08:24:51.631Z,0.90
2023-03-19T08:25:51.586Z,0.80
2023-03-19T08:26:51.595Z,0.80
2023-03-19T08:27:51.588Z,0.90
2023-03-19T08:28:51.586Z,0.70
2023-03-19T08:29:51.587Z,0.80
2023-03-19T08:30:51.617Z,0.80
2023-03-19T08:31:51.579Z,1.00
2023-03-19T08:32:51.606Z,0.70
2023-03-19T08:33:51.589Z,0.70
2023-03-19T08:34:51.560Z,0.80
2023-03-19T08:35:51.588Z,0.80
2023-03-19T08:36:51.570Z,0.70
2023-03-19T08:37:51.576Z,0.70
2023-03-19T08:38:51.543Z,1.00
2023-03-19T08:39:51.542Z,0.80
2023-03-19T08:40:51.557Z,1.10
2023-03-19T08:41:51.537Z,0.90
2023-03-19T08:42:51.544Z,4.20
2023-03-19T08:43:51.537Z,5.50
2023-03-19T08:44:51.553Z,4.20
2023-03-19T08:45:51.637Z,3.60
2023-03-19T08:46:51.563Z,4.20
2023-03-19T08:47:51.527Z,3.20
2023-03-19T08:48:51.533Z,3.90
2023-03-19T08:49:51.524Z,3.90
2023-03-19T08:50:51.530Z,5.30
2023-03-19T08:51:51.521Z,4.30
2023-03-19T08:52:51.544Z,5.00
2023-03-19T08:53:51.509Z,5.80
2023-03-19T08:54:51.508Z,5.10
2023-03-19T08:55:51.547Z,7.20
2023-03-19T08:56:51.520Z,7.50
2023-03-19T08:57:51.513Z,7.90
2023-03-19T08:58:51.505Z,7.10
2023-03-19T08:59:51.504Z,9.50
2023-03-19T09:00:51.508Z,9.90
2023-03-19T09:01:51.515Z,9.60
2023-03-19T09:02:51.491Z,8.90
2023-03-19T09:03:51.497Z,10.20
2023-03-19T09:04:51.586Z,9.60
2023-03-19T09:05:51.559Z,8.70
2023-03-19T09:06:51.496Z,9.10
2023-03-19T09:07:51.487Z,8.40
2023-03-19T09:08:51.504Z,7.40
2023-03-19T09:09:51.468Z,9.70
2023-03-19T09:10:51.653Z,8.60
2023-03-19T09:11:51.468Z,10.60
2023-03-19T09:12:51.467Z,9.40
2023-03-19T09:13:51.477Z,9.30
2023-03-19T09:14:51.467Z,7.80
2023-03-19T09:15:51.671Z,10.50
2023-03-19T09:16:51.488Z,8.80
2023-03-19T09:17:51.455Z,9.50
2023-03-19T09:18:51.479Z,8.50
2023-03-19T09:19:51.479Z,8.70
2023-03-19T09:20:51.456Z,8.50
2023-03-19T09:21:51.479Z,7.80
2023-03-19T09:22:51.454Z,6.70
2023-03-19T09:23:51.442Z,8.00
2023-03-19T09:24:51.488Z,2.90
2023-03-19T09:25:51.551Z,2.60
2023-03-19T09:26:51.474Z,2.40
2023-03-19T09:27:51.462Z,1.80
2023-03-19T09:28:51.446Z,2.60
2023-03-19T09:29:51.443Z,1.80
2023-03-19T09:30:51.548Z,2.50
2023-03-19T09:31:51.446Z,1.10
2023-03-19T09:32:51.467Z,2.20
2023-03-19T09:33:51.453Z,1.90
2023-03-19T09:34:51.460Z,1.70
2023-03-19T09:35:51.592Z,1.90
2023-03-19T09:36:51.450Z,2.30
2023-03-19T09:37:52.125Z,1.70
2023-03-19T09:38:51.432Z,1.10
2023-03-19T09:39:51.403Z,1.50
2023-03-19T09:40:51.527Z,1.90
2023-03-19T09:41:51.413Z,1.00
2023-03-19T09:42:51.424Z,1.60
2023-03-19T09:43:51.408Z,1.40
2023-03-19T09:44:51.389Z,1.60
2023-03-19T09:45:51.403Z,1.40
2023-03-19T09:46:51.452Z,1.10
2023-03-19T09:47:51.383Z,1.60
2023-03-19T09:48:51.373Z,1.20
2023-03-19T09:49:51.389Z,1.30
2023-03-19T09:50:51.395Z,1.30
2023-03-19T09:51:51.355Z,1.10
2023-03-19T09:52:51.354Z,1.40
2023-03-19T09:53:51.361Z,1.20
2023-03-19T09:54:51.351Z,1.10
2023-03-19T09:55:51.359Z,1.20
2023-03-19T09:56:51.385Z,1.10
2023-03-19T09:57:51.354Z,1.20
2023-03-19T09:58:51.346Z,1.20
2023-03-19T09:59:51.355Z,0.90
2023-03-19T10:00:51.350Z,1.00
2023-03-19T10:01:51.380Z,0.90
2023-03-19T10:02:51.327Z,0.90
2023-03-19T10:03:51.361Z,1.20
2023-03-19T10:04:51.327Z,1.30
2023-03-19T10:05:51.288Z,1.10
2023-03-19T10:06:51.300Z,1.00
2023-03-19T10:07:51.286Z,0.90
2023-03-19T10:08:51.287Z,0.90
2023-03-19T10:09:51.268Z,1.10
2023-03-19T10:10:51.276Z,1.70
2023-03-19T10:11:51.266Z,0.90
2023-03-19T10:12:51.308Z,1.10
2023-03-19T10:13:51.266Z,1.00
2023-03-19T10:14:51.286Z,1.20
2023-03-19T10:15:51.289Z,0.90
2023-03-19T10:16:51.265Z,0.80
2023-03-19T10:17:51.279Z,0.80
2023-03-19T10:18:51.818Z,1.00
2023-03-19T10:19:51.251Z,1.10
2023-03-19T10:20:51.240Z,1.20
2023-03-19T10:21:51.257Z,0.70
2023-03-19T10:22:51.274Z,0.80
2023-03-19T10:23:51.203Z,1.00
2023-03-19T10:24:51.274Z,0.80
2023-03-19T10:25:51.202Z,0.90
2023-03-19T10:26:51.232Z,1.00
2023-03-19T10:27:51.183Z,1.00
2023-03-19T10:28:51.254Z,0.80
2023-03-19T10:29:51.175Z,0.80
2023-03-19T10:30:51.161Z,0.80
2023-03-19T10:31:51.228Z,0.80
2023-03-19T10:32:51.195Z,0.90
2023-03-19T10:33:51.143Z,0.80
2023-03-19T10:34:51.136Z,1.20
2023-03-19T10:35:51.156Z,0.80
2023-03-19T10:36:51.141Z,0.70
2023-03-19T10:37:51.128Z,1.00
2023-03-19T10:38:51.127Z,1.00
2023-03-19T10:39:51.128Z,0.80
2023-03-19T10:40:51.121Z,0.90
2023-03-19T10:41:51.137Z,0.90
2023-03-19T10:42:51.088Z,0.90
2023-03-19T10:43:51.098Z,1.30
2023-03-19T10:44:51.116Z,0.80
2023-03-19T10:45:51.136Z,0.90
2023-03-19T10:46:51.133Z,0.90
2023-03-19T10:47:51.081Z,0.90
2023-03-19T10:48:51.079Z,0.80
2023-03-19T10:49:51.098Z,1.00
2023-03-19T10:50:51.065Z,0.80
2023-03-19T10:51:51.042Z,0.80
2023-03-19T10:52:51.058Z,0.80
2023-03-19T10:53:51.023Z,0.90
2023-03-19T10:54:51.061Z,1.00
2023-03-19T10:55:51.035Z,1.00
2023-03-19T10:56:51.039Z,0.80
2023-03-19T10:57:51.017Z,0.90
2023-03-19T10:58:51.025Z,0.80
2023-03-19T10:59:51.011Z,1.00
2023-03-19T11:00:51.072Z,0.80
2023-03-19T11:01:50.991Z,0.90
2023-03-19T11:02:50.984Z,1.30
2023-03-19T11:03:51.173Z,0.90
2023-03-19T11:04:50.988Z,0.80
2023-03-19T11:05:50.972Z,1.10
2023-03-19T11:06:50.967Z,0.90
2023-03-19T11:07:50.973Z,1.00
2023-03-19T11:08:50.948Z,0.80
2023-03-19T11:09:50.944Z,0.80
2023-03-19T11:10:50.945Z,1.30
2023-03-19T11:11:51.196Z,0.80
2023-03-19T11:12:50.913Z,0.80
2023-03-19T11:13:50.926Z,0.90
2023-03-19T11:14:50.919Z,0.90
2023-03-19T11:15:50.900Z,0.80
2023-03-19T11:16:51.002Z,0.80
2023-03-19T11:17:50.899Z,0.90
2023-03-19T11:18:50.907Z,0.70
2023-03-19T11:19:50.908Z,1.10
2023-03-19T11:20:50.907Z,0.80
2023-03-19T11:21:50.889Z,0.90
2023-03-19T11:22:50.885Z,0.80
2023-03-19T11:23:50.862Z,0.80
2023-03-19T11:24:50.853Z,0.80
2023-03-19T11:25:50.872Z,0.70
2023-03-19T11:26:50.833Z,0.90
2023-03-19T11:27:50.845Z,0.80
2023-03-19T11:28:50.825Z,0.90
2023-03-19T11:29:50.827Z,0.90
2023-03-19T11:30:50.835Z,1.10
2023-03-19T11:31:50.869Z,0.90
2023-03-19T11:32:50.865Z,0.80
2023-03-19T11:33:50.806Z,0.80
2023-03-19T11:34:52.566Z,1.50
2023-03-19T11:35:50.828Z,1.00
2023-03-19T11:36:50.781Z,1.30
2023-03-19T11:37:50.820Z,0.80
2023-03-19T11:38:50.780Z,0.90
2023-03-19T11:39:50.757Z,1.00
2023-03-19T11:40:50.775Z,1.20
2023-03-19T11:41:50.812Z,1.10
2023-03-19T11:42:50.759Z,0.80
2023-03-19T11:43:50.759Z,1.00
2023-03-19T11:44:50.761Z,0.90
2023-03-19T11:45:50.818Z,0.90
2023-03-19T11:46:50.761Z,0.80
2023-03-19T11:47:50.736Z,1.10
2023-03-19T11:48:50.750Z,1.00
2023-03-19T11:49:50.734Z,1.00
2023-03-19T11:50:50.721Z,0.80
2023-03-19T11:51:50.722Z,1.30
2023-03-19T11:52:50.703Z,0.80
2023-03-19T11:53:50.689Z,1.60
2023-03-19T11:54:50.695Z,1.00
2023-03-19T11:55:50.690Z,1.70
2023-03-19T11:56:50.690Z,0.90
2023-03-19T11:57:50.657Z,0.90
2023-03-19T11:58:50.668Z,1.10
2023-03-19T11:59:50.653Z,1.10
2023-03-19T12:00:50.711Z,0.90
2023-03-19T12:01:50.635Z,0.90
2023-03-19T12:02:50.671Z,0.80
2023-03-19T12:03:50.674Z,1.00
2023-03-19T12:04:50.675Z,0.80
2023-03-19T12:05:50.621Z,1.00
2023-03-19T12:06:50.616Z,1.10
2023-03-19T12:07:50.612Z,1.00
2023-03-19T12:08:50.627Z,0.80
2023-03-19T12:09:50.611Z,0.90
2023-03-19T12:10:50.610Z,0.80
2023-03-19T12:11:50.584Z,0.90
2023-03-19T12:12:50.588Z,0.70
2023-03-19T12:13:50.578Z,1.00
2023-03-19T12:14:50.596Z,0.80
2023-03-19T12:15:50.589Z,1.00
2023-03-19T12:16:50.584Z,0.80
2023-03-19T12:17:50.551Z,1.10
2023-03-19T12:18:50.566Z,0.80
2023-03-19T12:19:50.586Z,0.80
2023-03-19T12:20:50.569Z,1.00
2023-03-19T12:21:50.562Z,0.80
2023-03-19T12:22:50.547Z,0.80
2023-03-19T12:23:50.524Z,0.90
2023-03-19T12:24:50.524Z,1.10
2023-03-19T12:25:50.511Z,1.10
2023-03-19T12:26:50.513Z,1.00
2023-03-19T12:27:50.535Z,0.90
2023-03-19T12:28:50.497Z,1.00
2023-03-19T12:29:50.486Z,0.90
2023-03-19T12:30:50.561Z,1.30
2023-03-19T12:31:50.496Z,1.10
2023-03-19T12:32:50.506Z,1.00
2023-03-19T12:33:50.476Z,1.00
2023-03-19T12:34:50.484Z,1.20
2023-03-19T12:35:50.499Z,0.90
2023-03-19T12:36:50.466Z,0.80
2023-03-19T12:37:50.461Z,1.00
2023-03-19T12:38:50.450Z,0.80
2023-03-19T12:39:50.433Z,1.00
2023-03-19T12:40:50.428Z,0.80
2023-03-19T12:41:50.423Z,1.00
2023-03-19T12:42:50.424Z,0.80
2023-03-19T12:43:50.429Z,0.90
2023-03-19T12:44:50.419Z,0.90
2023-03-19T12:45:50.413Z,0.90
2023-03-19T12:46:50.462Z,1.00
2023-03-19T12:47:50.390Z,1.20
2023-03-19T12:48:50.393Z,0.90
2023-03-19T12:49:50.373Z,0.90
2023-03-19T12:50:50.363Z,0.90
2023-03-19T12:51:50.387Z,1.00
2023-03-19T12:52:50.384Z,0.90
2023-03-19T12:53:50.369Z,1.10
2023-03-19T12:54:50.356Z,0.90
2023-03-19T12:55:50.353Z,0.80
2023-03-19T12:56:50.369Z,0.90
2023-03-19T12:57:50.332Z,0.80
2023-03-19T12:58:50.334Z,1.00
2023-03-19T12:59:50.328Z,1.00
2023-03-19T13:00:50.316Z,0.80
2023-03-19T13:01:50.459Z,0.90
2023-03-19T13:02:50.367Z,0.90
2023-03-19T13:03:50.308Z,0.90
2023-03-19T13:04:50.375Z,0.80
2023-03-19T13:05:50.284Z,1.50
2023-03-19T13:06:50.283Z,0.80
2023-03-19T13:07:50.287Z,1.00
2023-03-19T13:08:50.299Z,0.90
2023-03-19T13:09:50.274Z,0.90
2023-03-19T13:10:50.275Z,0.80
2023-03-19T13:11:50.263Z,1.10
2023-03-19T13:12:50.269Z,1.10
2023-03-19T13:13:50.261Z,1.30
2023-03-19T13:14:50.246Z,1.00
2023-03-19T13:15:50.270Z,0.80
2023-03-19T13:16:50.231Z,1.00
2023-03-19T13:17:50.242Z,1.20
2023-03-19T13:18:50.252Z,0.90